Time;durP1;ratioP1;P1;durP2;ratioP2;P2;SDS_P1;SDS_P2;PMS_P1;PMS_P2;Temp;Humidity;BMP_temperature;BMP_pressure;BME280_temperature;BME280_humidity;BME280_pressure;Samples;Min_cycle;Max_cycle;Signal;HPM_P1;HPM_P2
2022/12/11 00:00:51;;;;;;;19.17;11.23;;;2.60;68.00;;;;;;5038999;28;20060;-61
2022/12/11 00:03:17;;;;;;;24.80;13.65;;;2.60;68.00;;;;;;5041602;28;20120;-63
2022/12/11 00:05:44;;;;;;;20.20;12.82;;;2.60;68.10;;;;;;5036439;28;20056;-61
2022/12/11 00:08:11;;;;;;;19.63;11.02;;;2.60;68.20;;;;;;5036955;28;20026;-61
2022/12/11 00:10:37;;;;;;;19.55;11.20;;;2.60;68.10;;;;;;5027808;28;20069;-63
2022/12/11 00:13:03;;;;;;;20.50;11.57;;;2.60;68.10;;;;;;5032558;28;20052;-62
2022/12/11 00:15:29;;;;;;;18.88;10.65;;;2.60;68.00;;;;;;5043636;28;20029;-63
2022/12/11 00:17:55;;;;;;;17.73;10.68;;;2.60;68.00;;;;;;5023767;28;20034;-63
2022/12/11 00:20:21;;;;;;;17.92;10.57;;;2.60;67.80;;;;;;5035375;28;20400;-62
2022/12/11 00:22:46;;;;;;;17.50;10.77;;;2.60;67.60;;;;;;5038784;28;20105;-63
2022/12/11 00:25:12;;;;;;;15.57;9.75;;;2.60;67.60;;;;;;5018347;28;20385;-61
2022/12/11 00:27:38;;;;;;;18.80;11.32;;;2.50;67.60;;;;;;5039633;28;20026;-62
2022/12/11 00:30:04;;;;;;;16.77;10.65;;;2.50;67.50;;;;;;5035312;28;20033;-61
2022/12/11 00:32:30;;;;;;;65.50;29.48;;;2.50;67.70;;;;;;5044639;28;20029;-62
2022/12/11 00:34:56;;;;;;;32.22;17.70;;;2.50;67.70;;;;;;5036253;28;20021;-63
2022/12/11 00:37:22;;;;;;;21.52;13.23;;;2.50;67.90;;;;;;5034968;28;20065;-61
2022/12/11 00:39:48;;;;;;;20.60;12.40;;;2.50;67.90;;;;;;5040706;28;20025;-63
2022/12/11 00:42:13;;;;;;;20.25;10.60;;;2.50;67.90;;;;;;5034399;28;20017;-60
2022/12/11 00:44:39;;;;;;;17.42;10.82;;;2.50;67.90;;;;;;5033474;28;20069;-61
2022/12/11 00:47:05;;;;;;;21.58;11.70;;;2.50;67.80;;;;;;5040142;28;20034;-61
2022/12/11 00:49:30;;;;;;;15.15;10.05;;;2.60;67.80;;;;;;5020299;28;20057;-62
2022/12/11 00:51:56;;;;;;;17.13;10.55;;;2.60;67.80;;;;;;5042823;28;20032;-61
2022/12/11 00:54:22;;;;;;;16.38;10.52;;;2.50;67.60;;;;;;5038771;28;20451;-61
2022/12/11 00:56:47;;;;;;;17.83;10.07;;;2.60;67.70;;;;;;5038727;28;20539;-62
2022/12/11 00:59:13;;;;;;;15.25;8.77;;;2.60;67.80;;;;;;5040451;28;20499;-61
2022/12/11 01:01:38;;;;;;;15.43;9.65;;;2.60;67.60;;;;;;5046576;28;20076;-61
2022/12/11 01:04:04;;;;;;;13.55;8.65;;;2.60;67.60;;;;;;5045233;28;20022;-61
2022/12/11 01:06:30;;;;;;;15.50;9.27;;;2.60;67.50;;;;;;5037670;28;20021;-60
2022/12/11 01:11:45;;;;;;;14.60;8.13;;;2.60;67.20;;;;;;4967115;28;20035;-61
2022/12/11 01:14:11;;;;;;;14.73;8.43;;;2.50;67.10;;;;;;4950978;28;20052;-61
2022/12/11 01:16:37;;;;;;;14.43;8.65;;;2.60;67.20;;;;;;4956739;28;20124;-61
2022/12/11 01:19:03;;;;;;;14.80;8.60;;;2.60;67.10;;;;;;4958483;28;20067;-62
2022/12/11 01:21:29;;;;;;;13.80;8.63;;;2.60;67.20;;;;;;4956064;28;20102;-62
2022/12/11 01:23:54;;;;;;;11.65;7.70;;;2.60;67.20;;;;;;4956926;28;20039;-61
2022/12/11 01:26:20;;;;;;;13.50;8.45;;;2.60;67.00;;;;;;4942468;29;20098;-61
2022/12/11 01:28:49;;;;;;;14.52;8.45;;;2.60;67.00;;;;;;4960524;28;20047;-61
2022/12/11 01:31:16;;;;;;;12.98;8.75;;;2.60;67.10;;;;;;4959221;28;20053;-61
2022/12/11 01:33:42;;;;;;;14.63;10.13;;;2.60;67.20;;;;;;4956365;28;20202;-61
2022/12/11 01:36:09;;;;;;;18.77;9.70;;;2.70;67.40;;;;;;4961480;28;20067;-61
2022/12/11 01:38:35;;;;;;;16.75;10.18;;;2.70;67.50;;;;;;4958941;28;22363;-62
2022/12/11 01:41:01;;;;;;;16.15;9.70;;;2.70;67.50;;;;;;4958907;28;20474;-61
2022/12/11 01:43:27;;;;;;;16.30;10.05;;;2.70;67.50;;;;;;4958111;28;20066;-61
2022/12/11 01:45:53;;;;;;;17.05;9.85;;;2.80;67.60;;;;;;4960160;28;20031;-61
2022/12/11 01:48:26;;;;;;;15.63;9.55;;;2.80;67.50;;;;;;4987029;28;20037;-62
2022/12/11 01:50:55;;;;;;;15.65;9.38;;;2.80;67.30;;;;;;5032176;28;20037;-62
2022/12/11 01:53:25;;;;;;;13.63;9.20;;;2.80;67.20;;;;;;5038360;28;20052;-62
2022/12/11 01:55:54;;;;;;;15.48;9.73;;;2.80;67.00;;;;;;5041323;28;20021;-62
2022/12/11 01:58:23;;;;;;;16.95;9.75;;;2.80;67.00;;;;;;5021161;28;20022;-61
2022/12/11 02:00:50;;;;;;;14.57;8.98;;;2.80;67.00;;;;;;5040755;28;20029;-62
2022/12/11 02:03:16;;;;;;;15.55;9.00;;;2.80;67.00;;;;;;5043056;28;20033;-62
2022/12/11 02:05:41;;;;;;;16.52;9.25;;;2.80;67.00;;;;;;5021130;28;20029;-62
2022/12/11 02:08:08;;;;;;;15.07;9.45;;;2.80;67.00;;;;;;5016921;28;20477;-62
2022/12/11 02:11:03;;;;;;;13.50;8.90;;;2.80;66.90;;;;;;5032721;28;20108;-61
2022/12/11 02:13:31;;;;;;;;;;;2.80;66.80;;;;;;5034683;28;20038;-63
2022/12/11 02:16:05;;;;;;;13.38;7.88;;;2.80;66.70;;;;;;5034088;28;19913;-61
2022/12/11 02:18:41;;;;;;;13.10;8.40;;;2.80;66.60;;;;;;5035766;28;20021;-62
2022/12/11 02:21:18;;;;;;;17.23;9.32;;;2.70;66.70;;;;;;5034273;28;20535;-61
2022/12/11 02:23:59;;;;;;;14.45;9.00;;;2.70;67.10;;;;;;5035598;28;20129;-63
2022/12/11 02:26:35;;;;;;;14.90;8.18;;;2.70;67.10;;;;;;5012812;28;20054;-62
2022/12/11 02:29:07;;;;;;;13.90;8.65;;;2.70;67.30;;;;;;5037703;28;20026;-62
2022/12/11 02:31:45;;;;;;;14.23;8.40;;;2.70;67.30;;;;;;5039892;28;20033;-62
2022/12/11 02:34:20;;;;;;;12.95;8.35;;;2.70;67.10;;;;;;5037527;28;20332;-63
2022/12/11 02:36:54;;;;;;;13.77;8.45;;;2.80;67.20;;;;;;5045022;28;20041;-62
2022/12/11 02:39:22;;;;;;;14.93;9.27;;;2.80;67.20;;;;;;5042123;28;20065;-61
2022/12/11 02:41:50;;;;;;;14.45;8.63;;;2.70;67.10;;;;;;5022546;28;20085;-61
2022/12/11 02:44:21;;;;;;;12.30;7.93;;;3.00;66.80;;;;;;5044489;28;20700;-62
2022/12/11 02:46:46;;;;;;;12.48;7.93;;;2.70;66.70;;;;;;5052299;28;20055;-61
2022/12/11 02:49:13;;;;;;;12.85;8.43;;;2.70;66.60;;;;;;5043270;28;20037;-62
2022/12/11 02:51:42;;;;;;;14.23;7.68;;;2.70;66.60;;;;;;5033425;28;20365;-61
2022/12/11 02:54:15;;;;;;;11.90;8.32;;;2.60;66.50;;;;;;5035322;28;20030;-61
2022/12/11 02:56:46;;;;;;;11.80;7.35;;;2.60;66.50;;;;;;5042017;28;20029;-62
2022/12/11 02:59:17;;;;;;;14.23;7.22;;;2.60;66.50;;;;;;5037414;28;20044;-62
2022/12/11 03:01:44;;;;;;;11.35;6.90;;;2.60;66.50;;;;;;5035461;28;20025;-62
2022/12/11 03:04:10;;;;;;;13.45;7.50;;;2.60;66.60;;;;;;5025546;28;20017;-63
2022/12/11 03:06:41;;;;;;;10.98;7.35;;;2.60;66.40;;;;;;5045668;28;20068;-62
2022/12/11 03:09:08;;;;;;;11.10;7.13;;;2.60;66.20;;;;;;5042368;28;20041;-63
2022/12/11 03:11:33;;;;;;;11.38;7.68;;;2.60;67.00;;;;;;5025522;28;20049;-62
2022/12/11 03:14:01;;;;;;;12.25;8.20;;;2.60;66.30;;;;;;5018522;28;20033;-62
2022/12/11 03:16:40;;;;;;;12.07;7.35;;;2.60;66.40;;;;;;5022703;28;20460;-63
2022/12/11 03:19:18;;;;;;;12.40;6.85;;;2.60;66.40;;;;;;5020848;28;20033;-63
2022/12/11 03:21:49;;;;;;;12.05;7.05;;;2.60;66.20;;;;;;5021177;28;20130;-63
2022/12/11 03:24:37;;;;;;;11.85;7.22;;;2.60;66.20;;;;;;5039324;28;20089;-63
2022/12/11 03:27:25;;;;;;;11.60;7.55;;;2.60;66.20;;;;;;5034426;28;20377;-62
2022/12/11 03:30:17;;;;;;;12.90;8.00;;;2.60;66.00;;;;;;5032859;28;20093;-63
2022/12/11 03:33:07;;;;;;;9.88;6.43;;;2.60;66.00;;;;;;5037958;28;20037;-62
2022/12/11 03:35:41;;;;;;;10.35;6.38;;;2.50;66.10;;;;;;5041352;28;20050;-62
2022/12/11 03:38:21;;;;;;;11.07;7.15;;;2.50;66.10;;;;;;5034808;28;20017;-62
2022/12/11 03:40:51;;;;;;;9.38;6.20;;;2.50;66.10;;;;;;5038986;28;20040;-62
2022/12/11 03:43:18;;;;;;;11.57;7.00;;;2.50;66.30;;;;;;5038119;28;20024;-62
2022/12/11 03:45:47;;;;;;;10.98;6.90;;;2.50;66.30;;;;;;5026914;28;20073;-62
2022/12/11 03:48:16;;;;;;;11.57;7.28;;;2.50;66.10;;;;;;5038688;28;20021;-62
2022/12/11 03:50:42;;;;;;;13.15;7.38;;;2.50;66.20;;;;;;5042581;28;20033;-62
2022/12/11 03:53:09;;;;;;;11.48;7.55;;;2.40;66.00;;;;;;5040205;28;20021;-63
2022/12/11 03:55:36;;;;;;;12.95;7.90;;;2.40;66.10;;;;;;5039632;28;20030;-62
2022/12/11 03:58:02;;;;;;;11.68;7.18;;;2.40;66.30;;;;;;5033282;28;20105;-62
2022/12/11 04:00:28;;;;;;;13.18;7.20;;;2.40;66.10;;;;;;5032471;28;20026;-63
2022/12/11 04:03:12;;;;;;;10.65;6.68;;;2.40;66.10;;;;;;5037144;28;20017;-62
2022/12/11 04:05:45;;;;;;;8.55;5.65;;;2.40;66.00;;;;;;5020766;28;20025;-64
2022/12/11 04:08:11;;;;;;;11.73;6.97;;;2.40;66.00;;;;;;5034787;28;20045;-62
2022/12/11 04:10:37;;;;;;;10.73;6.80;;;2.40;66.00;;;;;;5043495;28;20089;-62
2022/12/11 04:13:03;;;;;;;11.43;7.13;;;2.40;66.10;;;;;;5040430;28;20029;-61
2022/12/11 04:15:29;;;;;;;11.82;7.78;;;2.40;66.20;;;;;;5030054;28;20091;-61
2022/12/11 04:26:16;;;;;;;15.32;7.90;;;2.20;65.80;;;;;;5043741;28;20029;-63
2022/12/11 04:28:44;;;;;;;11.82;7.35;;;2.10;65.90;;;;;;5037872;28;20036;-63
2022/12/11 04:31:12;;;;;;;12.80;7.20;;;2.10;65.90;;;;;;5035090;28;20053;-63
2022/12/11 04:33:38;;;;;;;13.38;7.13;;;2.00;66.00;;;;;;5039940;28;20032;-63
2022/12/11 04:36:04;;;;;;;20.45;8.27;;;1.90;66.00;;;;;;5035654;28;20029;-61
2022/12/11 04:38:29;;;;;;;12.15;7.38;;;1.90;66.20;;;;;;5041137;28;20463;-63
2022/12/11 04:41:04;;;;;;;10.20;6.80;;;1.80;66.20;;;;;;5037284;28;20197;-61
2022/12/11 04:43:30;;;;;;;11.35;7.28;;;1.80;66.20;;;;;;5041245;28;20380;-63
2022/12/11 04:46:06;;;;;;;12.27;7.55;;;1.80;66.30;;;;;;5040971;28;20025;-63
2022/12/11 04:48:32;;;;;;;9.85;6.47;;;1.70;66.30;;;;;;5041643;28;20076;-63
2022/12/11 04:50:58;;;;;;;12.20;7.57;;;1.70;66.50;;;;;;5038753;28;20463;-62
2022/12/11 04:53:24;;;;;;;10.68;6.72;;;1.70;66.50;;;;;;5032376;28;20033;-61
2022/12/11 04:55:50;;;;;;;15.90;8.88;;;1.60;66.50;;;;;;5031165;28;20025;-61
2022/12/11 04:58:16;;;;;;;15.43;8.43;;;1.60;66.60;;;;;;5041912;28;20112;-63
2022/12/11 05:00:42;;;;;;;12.07;7.25;;;1.60;66.70;;;;;;5018624;28;20089;-63
2022/12/11 05:03:08;;;;;;;10.85;7.28;;;1.50;66.60;;;;;;5034062;28;20779;-63
2022/12/11 05:05:34;;;;;;;11.05;7.10;;;1.50;66.50;;;;;;5029180;28;20033;-63
2022/12/11 05:07:59;;;;;;;12.30;6.93;;;1.50;66.50;;;;;;5041167;28;20381;-63
2022/12/11 05:10:25;;;;;;;12.32;7.00;;;1.40;66.50;;;;;;5023714;28;20045;-61
2022/12/11 05:12:50;;;;;;;12.13;7.40;;;1.30;66.40;;;;;;5038170;28;20018;-61
2022/12/11 05:15:16;;;;;;;9.48;6.45;;;1.30;66.50;;;;;;5033459;28;20136;-62
2022/12/11 05:17:42;;;;;;;10.55;7.13;;;1.30;66.50;;;;;;5010154;28;20033;-61
2022/12/11 05:20:08;;;;;;;11.30;6.55;;;1.20;66.60;;;;;;5031744;28;20570;-63
2022/12/11 05:22:34;;;;;;;11.30;6.68;;;1.20;66.70;;;;;;5036623;28;20073;-61
2022/12/11 05:25:00;;;;;;;12.55;6.75;;;1.10;66.60;;;;;;5042981;28;20042;-63
2022/12/11 05:27:26;;;;;;;13.57;7.85;;;1.10;66.70;;;;;;5034186;28;20104;-61
2022/12/11 05:29:51;;;;;;;13.13;7.95;;;1.10;66.80;;;;;;5031337;28;20083;-63
2022/12/11 05:32:17;;;;;;;11.63;7.13;;;1.10;66.90;;;;;;5037778;28;20025;-61
2022/12/11 05:34:43;;;;;;;11.98;6.68;;;1.00;66.80;;;;;;5038699;28;20079;-61
2022/12/11 05:37:09;;;;;;;11.40;7.50;;;1.00;66.90;;;;;;5027590;28;20080;-61
2022/12/11 05:39:34;;;;;;;16.80;7.82;;;1.00;66.90;;;;;;5033949;28;20038;-61
2022/12/11 05:42:00;;;;;;;14.02;7.20;;;1.00;66.90;;;;;;5034281;28;20092;-61
2022/12/11 05:44:26;;;;;;;9.70;6.30;;;1.00;67.00;;;;;;5018467;28;20029;-61
2022/12/11 05:46:51;;;;;;;10.77;6.85;;;1.00;67.10;;;;;;5044016;28;20025;-63
2022/12/11 05:49:17;;;;;;;9.93;6.72;;;1.00;67.10;;;;;;5032334;28;20034;-62
2022/12/11 05:51:43;;;;;;;11.85;6.88;;;0.90;67.10;;;;;;5017597;28;20061;-62
2022/12/11 05:54:09;;;;;;;9.95;6.88;;;1.00;67.10;;;;;;5040713;28;20025;-62
2022/12/11 05:56:36;;;;;;;11.82;7.32;;;1.00;67.10;;;;;;5042643;28;20049;-62
2022/12/11 05:59:03;;;;;;;10.50;6.80;;;0.90;67.10;;;;;;5031507;28;20077;-62
2022/12/11 06:01:30;;;;;;;11.27;6.80;;;0.90;67.00;;;;;;5039597;28;20044;-63
2022/12/11 06:03:57;;;;;;;13.07;7.20;;;0.90;67.00;;;;;;5042608;28;20026;-62
2022/12/11 06:06:24;;;;;;;12.55;6.78;;;0.90;66.90;;;;;;5048963;28;20076;-62
2022/12/11 06:08:53;;;;;;;10.15;6.38;;;0.80;66.80;;;;;;5040013;28;20101;-62
2022/12/11 06:11:20;;;;;;;12.25;7.45;;;0.80;66.80;;;;;;5046735;28;20045;-60
2022/12/11 06:13:46;;;;;;;12.05;7.03;;;0.80;67.60;;;;;;5040529;28;21234;-62
2022/12/11 06:16:12;;;;;;;12.50;7.78;;;0.70;66.90;;;;;;5042187;28;20029;-63
2022/12/11 06:18:40;;;;;;;12.10;7.65;;;0.70;67.10;;;;;;5043993;28;20120;-61
2022/12/11 06:21:17;;;;;;;12.65;7.63;;;0.60;67.20;;;;;;5045517;28;20036;-61
2022/12/11 06:23:44;;;;;;;11.18;7.55;;;0.60;67.40;;;;;;5047320;28;20037;-63
2022/12/11 06:26:11;;;;;;;11.48;7.93;;;0.60;67.50;;;;;;5050753;28;20029;-63
2022/12/11 06:28:38;;;;;;;12.68;8.30;;;0.60;67.50;;;;;;5046032;28;20026;-63
2022/12/11 06:31:04;;;;;;;13.10;8.10;;;0.50;67.50;;;;;;5042195;28;20128;-64
2022/12/11 06:33:30;;;;;;;11.05;7.47;;;0.50;67.70;;;;;;5042833;28;20085;-62
2022/12/11 06:35:59;;;;;;;14.23;8.18;;;0.50;67.70;;;;;;5038797;28;20036;-62
2022/12/11 06:38:25;;;;;;;14.73;8.43;;;0.50;68.10;;;;;;5035240;28;20071;-64
2022/12/11 06:40:55;;;;;;;14.38;8.52;;;0.90;68.30;;;;;;5039227;28;20025;-64
2022/12/11 06:43:21;;;;;;;13.07;8.82;;;0.60;68.20;;;;;;5039234;28;20465;-63
2022/12/11 06:45:47;;;;;;;12.68;8.65;;;0.60;68.30;;;;;;5043797;28;20022;-62
2022/12/11 06:48:13;;;;;;;14.48;8.73;;;0.60;68.30;;;;;;5045241;28;20450;-62
2022/12/11 06:50:38;;;;;;;15.13;8.93;;;0.60;68.20;;;;;;5043513;28;20122;-63
2022/12/11 06:53:04;;;;;;;15.98;8.90;;;0.70;69.00;;;;;;5022579;28;20105;-63
2022/12/11 06:55:30;;;;;;;19.60;10.70;;;0.70;68.40;;;;;;5039746;28;20024;-65
2022/12/11 06:57:55;;;;;;;16.83;9.45;;;0.70;68.30;;;;;;5039512;28;20108;-60
2022/12/11 07:00:21;;;;;;;13.07;8.38;;;0.70;68.20;;;;;;5017795;28;20097;-60
2022/12/11 07:02:49;;;;;;;13.13;8.80;;;1.00;68.20;;;;;;5021793;28;20017;-61
2022/12/11 07:05:14;;;;;;;19.13;11.70;;;0.80;68.00;;;;;;5036141;28;20053;-61
2022/12/11 07:07:40;;;;;;;24.25;12.60;;;0.80;67.90;;;;;;5041441;28;20028;-60
2022/12/11 07:10:06;;;;;;;23.88;13.25;;;0.90;67.80;;;;;;5041675;28;20044;-61
2022/12/11 07:12:32;;;;;;;34.65;18.80;;;0.80;67.70;;;;;;5026492;28;20135;-63
2022/12/11 07:14:58;;;;;;;21.27;12.68;;;0.80;67.60;;;;;;5040343;28;20033;-62
2022/12/11 07:17:23;;;;;;;22.45;12.82;;;0.80;67.60;;;;;;5048771;28;20028;-62
2022/12/11 07:19:49;;;;;;;36.40;18.52;;;0.80;67.70;;;;;;4944752;28;20029;-64
2022/12/11 07:22:14;;;;;;;22.15;12.82;;;0.70;67.70;;;;;;5035164;28;20168;-63
2022/12/11 07:24:40;;;;;;;18.75;10.95;;;0.70;67.70;;;;;;5038133;28;20080;-63
2022/12/11 07:27:06;;;;;;;19.17;11.23;;;0.70;67.70;;;;;;5047181;28;20040;-63
2022/12/11 07:29:32;;;;;;;15.98;9.45;;;0.80;67.70;;;;;;5042194;28;20061;-63
2022/12/11 07:31:57;;;;;;;14.05;8.93;;;0.70;67.50;;;;;;5035982;28;20032;-64
2022/12/11 07:34:23;;;;;;;14.73;8.68;;;0.70;67.40;;;;;;5035519;28;20564;-64
2022/12/11 07:36:49;;;;;;;14.05;9.18;;;0.70;67.30;;;;;;5040862;28;20378;-64
2022/12/11 07:39:14;;;;;;;13.90;8.45;;;0.70;67.30;;;;;;5036966;28;20036;-62
2022/12/11 07:41:40;;;;;;;10.18;7.22;;;0.70;67.60;;;;;;5039388;28;20029;-63
2022/12/11 07:44:06;;;;;;;12.68;7.95;;;0.60;67.70;;;;;;5039043;28;20083;-63
2022/12/11 07:46:33;;;;;;;12.90;8.23;;;0.60;67.80;;;;;;5034633;28;20030;-65
2022/12/11 07:49:02;;;;;;;14.90;8.55;;;0.60;68.00;;;;;;5032961;28;20029;-61
2022/12/11 07:51:34;;;;;;;16.85;8.80;;;0.70;68.20;;;;;;5042634;28;20045;-62
2022/12/11 07:54:03;;;;;;;13.23;8.35;;;0.70;68.30;;;;;;5039238;28;20018;-62
2022/12/11 07:56:30;;;;;;;13.73;8.30;;;1.00;69.20;;;;;;5030160;28;20033;-61
2022/12/11 07:59:00;;;;;;;15.88;8.90;;;0.80;68.40;;;;;;5043407;28;20033;-62
2022/12/11 08:01:28;;;;;;;20.20;11.77;;;0.80;68.40;;;;;;5034901;28;20091;-64
2022/12/11 08:03:55;;;;;;;27.40;13.45;;;0.90;68.50;;;;;;5042005;28;20069;-63
2022/12/11 08:06:28;;;;;;;31.98;15.25;;;0.90;68.40;;;;;;5040462;28;20029;-63
2022/12/11 08:08:55;;;;;;;25.17;11.98;;;0.90;68.20;;;;;;5037743;28;20071;-63
2022/12/11 08:11:21;;;;;;;25.40;11.77;;;1.20;68.20;;;;;;5035574;28;20050;-64
2022/12/11 08:13:47;;;;;;;23.75;11.07;;;1.00;68.00;;;;;;5046494;28;20028;-62
2022/12/11 08:16:14;;;;;;;25.08;12.27;;;1.00;67.90;;;;;;5042353;28;20505;-64
2022/12/11 08:18:41;;;;;;;21.02;11.07;;;1.10;67.80;;;;;;5043247;28;20028;-64
2022/12/11 08:21:26;;;;;;;21.80;11.57;;;1.10;67.90;;;;;;5036389;28;20029;-64
2022/12/11 08:23:53;;;;;;;21.67;12.05;;;1.10;67.90;;;;;;5042277;28;20459;-63
2022/12/11 08:26:28;;;;;;;23.60;12.85;;;1.10;68.00;;;;;;5041047;28;20139;-63
2022/12/11 08:28:54;;;;;;;21.73;12.45;;;1.20;68.20;;;;;;5033591;28;20041;-63
2022/12/11 08:31:20;;;;;;;23.63;11.77;;;1.20;68.30;;;;;;5033462;28;20045;-62
2022/12/11 08:33:46;;;;;;;22.10;12.25;;;1.30;68.40;;;;;;5032231;28;20052;-64
2022/12/11 08:36:17;;;;;;;27.60;15.43;;;1.40;68.50;;;;;;5034661;28;20072;-64
2022/12/11 08:38:43;;;;;;;23.90;13.43;;;1.40;68.40;;;;;;5039624;28;20364;-64
2022/12/11 08:41:18;;;;;;;18.38;11.07;;;1.50;68.30;;;;;;5037480;28;20109;-62
2022/12/11 08:43:43;;;;;;;17.10;9.45;;;1.60;68.40;;;;;;5040304;28;20022;-61
2022/12/11 08:46:10;;;;;;;15.63;9.65;;;1.70;68.50;;;;;;5040013;28;20492;-62
2022/12/11 08:48:45;;;;;;;14.85;9.48;;;1.80;68.50;;;;;;5116931;27;20189;-62
2022/12/11 08:51:13;;;;;;;19.25;11.63;;;1.90;68.40;;;;;;5092311;28;20036;-62
2022/12/11 08:53:39;;;;;;;62.55;36.00;;;2.00;68.30;;;;;;5091861;28;20060;-63
2022/12/11 08:56:11;;;;;;;51.08;32.33;;;2.10;68.10;;;;;;5097730;28;20048;-62
2022/12/11 08:58:37;;;;;;;28.23;16.90;;;2.30;68.10;;;;;;5096380;28;20098;-63
2022/12/11 09:01:11;;;;;;;22.00;13.02;;;2.40;68.20;;;;;;5095747;28;20039;-63
2022/12/11 09:03:38;;;;;;;31.70;21.58;;;2.60;67.90;;;;;;5094062;28;20475;-63
2022/12/11 09:06:12;;;;;;;23.85;15.02;;;2.70;67.70;;;;;;5092751;28;20103;-63
2022/12/11 09:08:39;;;;;;;15.77;10.38;;;2.80;67.40;;;;;;5091018;28;20036;-63
2022/12/11 09:11:10;;;;;;;24.27;15.07;;;2.90;67.30;;;;;;5093183;28;20039;-64
2022/12/11 09:13:36;;;;;;;13.75;9.52;;;3.00;67.30;;;;;;5091822;28;20032;-64
2022/12/11 09:16:12;;;;;;;15.80;8.20;;;3.10;66.60;;;;;;5090048;28;20036;-63
2022/12/11 09:18:39;;;;;;;13.65;7.80;;;3.20;66.10;;;;;;5086307;28;20029;-62
2022/12/11 09:21:10;;;;;;;10.85;6.75;;;3.20;65.80;;;;;;5093432;28;20572;-63
2022/12/11 09:23:36;;;;;;;11.48;7.45;;;3.20;65.50;;;;;;5088946;28;20031;-63
2022/12/11 09:26:05;;;;;;;12.73;8.32;;;3.20;65.10;;;;;;5094584;28;20031;-61
2022/12/11 09:28:31;;;;;;;12.23;7.05;;;3.20;64.10;;;;;;5088749;28;20124;-61
2022/12/11 09:30:57;;;;;;;12.60;7.10;;;3.20;65.10;;;;;;5086354;28;20029;-62
2022/12/11 09:33:23;;;;;;;13.00;6.90;;;3.20;65.30;;;;;;5089836;28;20084;-63
2022/12/11 09:35:59;;;;;;;12.25;7.13;;;3.20;65.30;;;;;;5088212;28;20471;-64
2022/12/11 09:38:25;;;;;;;14.20;7.60;;;3.20;64.40;;;;;;5089623;28;20021;-60
2022/12/11 09:40:51;;;;;;;13.80;8.02;;;3.30;63.50;;;;;;5091599;28;20056;-62
2022/12/11 09:43:28;;;;;;;14.57;8.80;;;3.30;64.20;;;;;;5093167;28;20043;-62
2022/12/11 09:45:55;;;;;;;12.57;7.47;;;3.30;63.80;;;;;;5093000;28;20036;-62
2022/12/11 09:48:24;;;;;;;12.35;7.90;;;3.20;63.90;;;;;;5092113;28;20041;-62
2022/12/11 09:50:52;;;;;;;17.08;7.88;;;3.20;63.90;;;;;;5097189;28;20020;-62
2022/12/11 09:53:28;;;;;;;13.85;7.93;;;3.20;64.20;;;;;;5090402;28;20028;-63
2022/12/11 09:55:54;;;;;;;13.70;7.70;;;3.30;64.60;;;;;;5094929;28;20020;-61
2022/12/11 09:58:43;;;;;;;10.23;6.70;;;3.30;64.40;;;;;;5085585;28;20028;-63
2022/12/11 10:01:50;;;;;;;14.45;8.32;;;3.30;64.10;;;;;;5076336;28;20039;-63
2022/12/11 10:04:16;;;;;;;12.68;7.53;;;3.30;63.60;;;;;;5078777;28;20055;-62
2022/12/11 10:07:14;;;;;;;9.38;5.82;;;3.30;64.50;;;;;;5085638;28;20040;-62
2022/12/11 10:09:49;;;;;;;11.05;5.65;;;3.40;64.00;;;;;;5080397;28;20028;-63
2022/12/11 10:12:30;;;;;;;11.07;6.03;;;3.50;63.90;;;;;;5063615;28;20024;-63
2022/12/11 10:15:14;;;;;;;12.02;5.93;;;3.50;63.70;;;;;;5069763;28;20092;-62
2022/12/11 10:17:43;;;;;;;8.38;5.63;;;3.50;62.80;;;;;;5077871;28;20025;-62
2022/12/11 10:20:16;;;;;;;13.15;5.93;;;3.50;63.30;;;;;;5074555;28;20471;-62
2022/12/11 10:22:43;;;;;;;10.25;5.57;;;3.50;63.70;;;;;;5080125;28;20089;-64
2022/12/11 10:25:37;;;;;;;9.70;5.90;;;3.50;63.60;;;;;;5078446;28;20039;-62
2022/12/11 10:28:16;;;;;;;10.40;6.10;;;3.50;62.50;;;;;;5076512;28;20070;-62
2022/12/11 10:30:54;;;;;;;11.38;5.43;;;3.50;61.60;;;;;;5081222;28;20033;-62
2022/12/11 10:33:37;;;;;;;9.90;5.30;;;3.50;62.40;;;;;;5075655;28;20012;-62
2022/12/11 10:36:06;;;;;;;10.77;6.45;;;3.50;63.00;;;;;;5081192;28;20013;-62
2022/12/11 10:38:37;;;;;;;9.02;6.07;;;3.50;62.90;;;;;;5077789;28;20471;-62
2022/12/11 10:41:10;;;;;;;10.20;6.13;;;3.60;63.60;;;;;;5077660;28;20037;-62
2022/12/11 10:43:48;;;;;;;10.65;6.15;;;3.60;63.10;;;;;;5080670;28;20128;-63
2022/12/11 10:46:17;;;;;;;11.63;6.68;;;3.60;62.90;;;;;;5081385;28;20052;-62
2022/12/11 10:48:54;;;;;;;10.52;5.97;;;3.60;62.70;;;;;;5081168;28;20041;-61
2022/12/11 10:51:24;;;;;;;11.10;6.50;;;3.60;62.70;;;;;;5078749;28;20032;-62
2022/12/11 10:53:52;;;;;;;9.15;5.40;;;3.60;61.80;;;;;;5084000;28;20028;-62
2022/12/11 10:56:27;;;;;;;9.50;5.60;;;3.60;62.30;;;;;;5078667;28;20017;-63
2022/12/11 10:58:55;;;;;;;9.90;5.57;;;3.60;62.70;;;;;;5071566;28;20086;-63
2022/12/11 11:01:24;;;;;;;8.27;5.43;;;3.60;61.70;;;;;;5080872;28;20029;-63
2022/12/11 11:04:28;;;;;;;10.32;5.35;;;3.60;61.70;;;;;;5082854;28;20028;-63
2022/12/11 11:07:12;;;;;;;9.13;6.17;;;3.60;62.10;;;;;;5078037;28;20364;-62
2022/12/11 11:09:41;;;;;;;7.43;4.13;;;3.60;62.50;;;;;;5080111;28;20293;-62
2022/12/11 11:12:27;;;;;;;8.48;4.88;;;3.60;62.70;;;;;;5080268;28;20024;-62
2022/12/11 11:15:11;;;;;;;11.00;6.40;;;3.60;62.50;;;;;;5073715;28;20077;-65
2022/12/11 11:17:47;;;;;;;7.78;4.53;;;3.50;62.40;;;;;;5076975;28;20033;-62
2022/12/11 11:20:21;;;;;;;10.57;5.90;;;3.60;62.50;;;;;;5077223;28;20451;-61
2022/12/11 11:22:51;;;;;;;8.77;4.63;;;3.60;62.60;;;;;;5076552;28;20043;-62
2022/12/11 11:25:22;;;;;;;11.40;5.70;;;3.60;62.50;;;;;;5082414;28;20027;-62
2022/12/11 11:27:55;;;;;;;11.63;6.43;;;3.60;62.40;;;;;;5077232;28;20045;-62
2022/12/11 11:30:31;;;;;;;10.23;6.53;;;3.60;62.00;;;;;;5078111;28;20033;-63
2022/12/11 11:33:03;;;;;;;12.18;6.32;;;3.70;62.60;;;;;;5076827;28;20021;-64
2022/12/11 11:35:30;;;;;;;11.27;6.55;;;3.70;62.60;;;;;;5082582;28;20614;-64
2022/12/11 11:38:15;;;;;;;11.77;6.30;;;3.80;62.80;;;;;;5078907;28;20090;-62
2022/12/11 11:41:09;;;;;;;8.38;5.60;;;3.80;62.70;;;;;;5073431;28;20035;-62
2022/12/11 11:43:48;;;;;;;14.35;6.50;;;3.90;61.40;;;;;;5078033;28;20119;-61
2022/12/11 11:46:23;;;;;;;11.85;6.05;;;3.90;60.00;;;;;;5079036;28;20400;-63
2022/12/11 11:48:59;;;;;;;10.85;6.25;;;3.90;61.30;;;;;;5078585;28;20028;-62
2022/12/11 11:51:36;;;;;;;11.07;6.45;;;3.90;61.40;;;;;;5082453;28;20094;-64
2022/12/11 11:54:27;;;;;;;9.18;4.85;;;3.90;61.20;;;;;;5083039;28;20087;-63
2022/12/11 11:57:00;;;;;;;8.85;5.07;;;3.80;61.80;;;;;;5081696;28;20084;-62
2022/12/11 11:59:39;;;;;;;9.52;4.90;;;3.80;61.20;;;;;;5060335;28;20082;-63
2022/12/11 12:02:14;;;;;;;9.93;4.97;;;3.80;61.50;;;;;;5088751;28;20028;-64
2022/12/11 12:04:40;;;;;;;;;;;3.70;61.20;;;;;;5080909;28;20060;-63
2022/12/11 12:07:21;;;;;;;7.15;4.93;;;3.70;61.20;;;;;;5076657;28;19923;-65
2022/12/11 12:10:13;;;;;;;7.80;4.80;;;3.60;60.00;;;;;;5063080;28;20028;-63
2022/12/11 12:13:00;;;;;;;12.88;4.50;;;3.50;60.60;;;;;;5078409;28;20119;-63
2022/12/11 12:15:40;;;;;;;8.15;3.97;;;3.50;60.80;;;;;;5077560;28;20043;-65
2022/12/11 12:18:26;;;;;;;7.07;4.25;;;3.40;61.60;;;;;;5037630;28;20020;-63
2022/12/11 12:21:08;;;;;;;8.63;4.80;;;3.40;62.20;;;;;;5065953;28;20017;-62
2022/12/11 12:24:21;;;;;;;12.25;5.70;;;3.50;62.00;;;;;;5079436;28;20121;-62
2022/12/11 12:27:16;;;;;;;10.25;4.60;;;3.50;61.20;;;;;;5070496;28;20045;-62
2022/12/11 12:29:52;;;;;;;9.48;5.47;;;3.50;61.70;;;;;;5077494;28;20059;-63
2022/12/11 12:32:27;;;;;;;10.38;4.82;;;3.60;61.90;;;;;;5055608;28;20029;-63
2022/12/11 12:35:07;;;;;;;8.75;5.18;;;3.60;61.60;;;;;;5078519;28;20041;-63
2022/12/11 12:37:54;;;;;;;11.82;5.30;;;3.60;61.50;;;;;;5081681;28;20039;-65
2022/12/11 12:40:29;;;;;;;8.18;4.75;;;3.50;61.80;;;;;;5074050;28;20073;-63
2022/12/11 12:43:05;;;;;;;8.07;4.15;;;3.60;62.10;;;;;;5061788;28;20339;-64
2022/12/11 12:45:46;;;;;;;7.43;4.50;;;3.60;61.90;;;;;;5080364;28;20073;-64
2022/12/11 12:48:12;;;;;;;9.32;5.00;;;3.60;61.90;;;;;;5075528;28;20187;-64
2022/12/11 12:50:49;;;;;;;8.52;4.50;;;3.60;62.30;;;;;;5085476;28;20182;-63
2022/12/11 12:53:24;;;;;;;9.63;5.07;;;3.60;62.20;;;;;;5079343;28;20058;-62
2022/12/11 12:55:51;;;;;;;11.45;5.70;;;3.70;62.50;;;;;;5078501;28;20024;-63
2022/12/11 12:58:38;;;;;;;8.95;4.47;;;3.70;62.40;;;;;;5082385;28;20056;-63
2022/12/11 13:01:15;;;;;;;7.03;4.53;;;3.80;62.00;;;;;;5072900;28;20025;-63
2022/12/11 13:04:00;;;;;;;9.40;4.70;;;3.80;62.10;;;;;;5077066;28;20032;-63
2022/12/11 13:06:39;;;;;;;7.03;4.65;;;3.80;60.20;;;;;;5077737;28;20024;-64
2022/12/11 13:09:22;;;;;;;9.07;4.82;;;3.80;61.40;;;;;;5073151;28;20028;-64
2022/12/11 13:11:52;;;;;;;8.70;4.50;;;3.70;61.20;;;;;;5078849;28;20549;-63
2022/12/11 13:14:18;;;;;;;7.55;4.22;;;3.70;61.50;;;;;;5077175;28;20078;-62
2022/12/11 13:16:48;;;;;;;11.70;4.80;;;3.60;61.80;;;;;;5076396;28;20070;-61